Terminal Aerodrome Forecast
Issued by NWS Knoxville/Tri Cities, TN

Home | Current Version | Previous Version | Text Only | Print | Product List | Glossary On
Versions: 1 2 3 4 5 6 7 8 9 10 11 12 13 14 15 16 17 18 19 20
000
FTUS44 KMRX 201133
TAFCHA
TAF
KCHA 201133Z 2012/2112 18003KT 4SM -RA BR OVC016
      TEMPO 2012/2014 6SM BR BKN020
     FM201400 19003KT P6SM VCSH SCT020 BKN040
     FM201700 19007KT P6SM SCT030 BKN050
     FM202300 19005KT P6SM SCT050 BKN150=

USA.gov is the U.S. government's official web portal to all federal, state and local government web resources and services.